createdAt,value
2018-01-11T00:23:32.341Z,19.87
2018-01-11T00:25:59.843Z,19.27
2018-01-11T00:28:27.345Z,18.35
2018-01-11T00:30:55.627Z,18.10
2018-01-11T00:33:23.126Z,20.08
2018-01-11T00:35:50.664Z,20.15
2018-01-11T00:38:18.171Z,20.73
2018-01-11T00:40:45.707Z,18.42
2018-01-11T00:43:13.216Z,17.85
2018-01-11T00:45:41.483Z,19.73
2018-01-11T00:48:09.761Z,21.12
2018-01-11T00:50:38.079Z,19.70
2018-01-11T00:53:05.630Z,18.00
2018-01-11T00:55:33.136Z,22.50
2018-01-11T00:58:00.645Z,19.92
2018-01-11T01:00:28.249Z,21.40
2018-01-11T01:02:55.725Z,22.45
2018-01-11T01:05:23.999Z,21.23
2018-01-11T01:07:51.510Z,21.12
2018-01-11T01:10:19.023Z,20.77
2018-01-11T01:12:47.322Z,20.98
2018-01-11T01:15:14.840Z,21.02
2018-01-11T01:17:42.468Z,22.30
2018-01-11T01:20:09.976Z,21.87
2018-01-11T01:22:38.255Z,21.65
2018-01-11T01:25:06.528Z,24.42
2018-01-11T01:27:34.793Z,24.10
2018-01-11T01:30:03.096Z,23.10
2018-01-11T01:32:30.597Z,23.87
2018-01-11T01:34:58.107Z,22.90
2018-01-11T01:37:25.626Z,23.10
2018-01-11T01:39:53.121Z,22.45
2018-01-11T01:42:20.629Z,22.33
2018-01-11T01:44:48.125Z,20.12
2018-01-11T01:47:16.453Z,22.08
2018-01-11T01:49:43.996Z,21.33
2018-01-11T01:52:11.494Z,23.20
2018-01-11T01:54:39.032Z,22.58
2018-01-11T01:57:06.599Z,21.97
2018-01-11T01:59:34.107Z,21.42
2018-01-11T02:02:01.622Z,21.45
2018-01-11T02:04:29.142Z,22.23
2018-01-11T02:06:56.637Z,24.67
2018-01-11T02:09:24.149Z,26.02
2018-01-11T02:11:51.714Z,29.80
2018-01-11T02:14:19.263Z,24.87
2018-01-11T02:16:46.771Z,25.60
2018-01-11T02:19:14.290Z,27.20
2018-01-11T02:21:41.808Z,25.92
2018-01-11T02:24:09.343Z,25.05
2018-01-11T02:26:36.860Z,23.50
2018-01-11T02:29:04.391Z,24.92
2018-01-11T02:31:32.652Z,26.55
2018-01-11T02:34:00.175Z,24.40
2018-01-11T02:36:27.692Z,25.70
2018-01-11T02:38:55.987Z,25.73
2018-01-11T02:41:23.505Z,24.37
2018-01-11T02:43:51.022Z,25.83
2018-01-11T02:46:18.536Z,24.67
2018-01-11T02:48:46.042Z,23.20
2018-01-11T02:51:13.568Z,25.33
2018-01-11T02:53:41.091Z,24.65
2018-01-11T02:56:08.594Z,26.92
2018-01-11T02:58:36.118Z,25.65
2018-01-11T03:01:04.394Z,22.77
2018-01-11T03:03:31.933Z,24.90
2018-01-11T03:05:59.454Z,25.95
2018-01-11T03:08:26.988Z,23.62
2018-01-11T03:10:55.268Z,23.83
2018-01-11T03:13:23.562Z,25.23
2018-01-11T03:15:51.118Z,23.83
2018-01-11T03:18:18.652Z,22.92
2018-01-11T03:20:46.927Z,24.37
2018-01-11T03:23:15.209Z,20.95
2018-01-11T03:25:43.496Z,23.70
2018-01-11T03:28:11.010Z,23.85
2018-01-11T03:30:38.541Z,24.63
2018-01-11T03:33:06.062Z,24.55
2018-01-11T03:35:34.343Z,23.75
2018-01-11T03:38:02.617Z,23.45
2018-01-11T03:40:30.903Z,22.42
2018-01-11T03:42:58.412Z,23.65
2018-01-11T03:45:25.905Z,22.52
2018-01-11T03:47:54.223Z,22.75
2018-01-11T03:50:21.722Z,22.15
2018-01-11T03:52:49.253Z,21.62
2018-01-11T03:55:16.767Z,21.73
2018-01-11T03:57:44.289Z,19.30
2018-01-11T04:00:11.922Z,20.95
2018-01-11T04:02:39.444Z,19.35
2018-01-11T04:05:06.970Z,21.62
2018-01-11T04:07:34.488Z,21.48
2018-01-11T04:10:02.006Z,22.85
2018-01-11T04:12:30.292Z,22.17
2018-01-11T04:14:57.912Z,21.25
2018-01-11T04:17:25.413Z,19.62
2018-01-11T04:19:52.943Z,22.67
2018-01-11T04:22:20.451Z,24.15
2018-01-11T04:24:47.973Z,25.08
2018-01-11T04:27:16.256Z,23.85
2018-01-11T04:29:44.544Z,26.85
2018-01-11T04:32:12.050Z,27.80
2018-01-11T04:34:39.588Z,25.83
2018-01-11T04:37:07.098Z,24.20
2018-01-11T04:39:35.391Z,26.20
2018-01-11T04:42:02.896Z,24.85
2018-01-11T04:44:30.411Z,24.27
2018-01-11T04:46:57.910Z,23.25
2018-01-11T04:49:25.439Z,21.02
2018-01-11T04:51:52.993Z,22.80
2018-01-11T04:54:20.523Z,21.05
2018-01-11T04:56:48.797Z,20.55
2018-01-11T04:59:16.327Z,22.83
2018-01-11T05:01:43.839Z,22.05
2018-01-11T05:04:11.362Z,20.50
2018-01-11T05:06:38.882Z,21.27
2018-01-11T05:09:06.389Z,22.03
2018-01-11T05:11:35.408Z,21.10
2018-01-11T05:14:02.931Z,21.87
2018-01-11T05:16:30.452Z,23.15
2018-01-11T05:18:57.981Z,24.08
2018-01-11T05:21:26.257Z,23.80
2018-01-11T05:23:54.553Z,21.83
2018-01-11T05:26:22.076Z,20.90
2018-01-11T05:28:50.358Z,22.90
2018-01-11T05:31:18.648Z,23.17
2018-01-11T05:33:46.184Z,21.30
2018-01-11T05:36:14.450Z,22.87
2018-01-11T05:38:41.975Z,22.70
2018-01-11T05:41:09.482Z,22.08
2018-01-11T05:43:37.756Z,22.63
2018-01-11T05:46:06.040Z,24.63
2018-01-11T05:48:34.317Z,24.00
2018-01-11T05:51:02.595Z,23.02
2018-01-11T05:53:30.873Z,22.30
2018-01-11T05:55:58.383Z,21.95
2018-01-11T05:58:25.901Z,25.77
2018-01-11T06:00:53.571Z,24.35
2018-01-11T06:03:21.085Z,24.20
2018-01-11T06:05:49.359Z,20.75
2018-01-11T06:08:16.889Z,21.30
2018-01-11T06:10:44.408Z,20.90
2018-01-11T06:13:11.926Z,19.73
2018-01-11T06:15:39.435Z,20.83
2018-01-11T06:18:06.993Z,21.55
2018-01-11T06:20:34.508Z,21.60
2018-01-11T06:23:02.038Z,19.30
2018-01-11T06:25:29.529Z,18.12
2018-01-11T06:27:57.131Z,17.77
2018-01-11T06:30:24.634Z,18.30
2018-01-11T06:32:52.164Z,17.90
2018-01-11T06:35:19.675Z,19.92
2018-01-11T06:37:47.975Z,21.52
2018-01-11T06:40:15.521Z,24.08
2018-01-11T06:42:43.779Z,21.50
2018-01-11T06:45:11.307Z,19.58
2018-01-11T06:47:38.800Z,20.42
2018-01-11T06:50:07.082Z,19.45
2018-01-11T06:52:35.355Z,20.35
2018-01-11T06:55:03.661Z,20.42
2018-01-11T06:57:31.171Z,20.55
2018-01-11T06:59:58.703Z,21.20
2018-01-11T07:02:26.196Z,22.60
2018-01-11T07:04:53.732Z,19.65
2018-01-11T07:07:21.239Z,19.52
2018-01-11T07:09:48.763Z,18.55
2018-01-11T07:12:16.261Z,17.87
2018-01-11T07:14:43.776Z,17.53
2018-01-11T07:17:11.283Z,16.90
2018-01-11T07:19:38.822Z,17.15
2018-01-11T07:22:06.338Z,16.90
2018-01-11T07:24:33.845Z,16.75
2018-01-11T07:27:01.427Z,16.42
2018-01-11T07:29:28.937Z,18.17
2018-01-11T07:31:57.201Z,18.58
2018-01-11T07:34:24.727Z,17.10
2018-01-11T07:36:52.230Z,16.05
2018-01-11T07:39:19.758Z,17.10
2018-01-11T07:41:47.276Z,18.40
2018-01-11T07:44:14.789Z,18.92
2018-01-11T07:46:42.289Z,18.92
2018-01-11T07:49:09.820Z,18.07
2018-01-11T07:51:37.336Z,19.55
2018-01-11T07:54:04.862Z,18.23
2018-01-11T07:56:32.361Z,19.85
2018-01-11T07:58:59.892Z,18.37
2018-01-11T08:01:27.398Z,18.12
2018-01-11T08:03:54.901Z,18.30
2018-01-11T08:06:22.415Z,17.42
2018-01-11T08:08:49.947Z,16.50
2018-01-11T08:11:17.482Z,17.80
2018-01-11T08:13:44.993Z,18.12
2018-01-11T08:16:12.503Z,21.77
2018-01-11T08:18:40.046Z,20.48
2018-01-11T08:21:07.630Z,22.20
2018-01-11T08:23:35.177Z,23.70
2018-01-11T08:26:02.692Z,21.98
2018-01-11T08:28:30.215Z,21.80
2018-01-11T08:30:57.703Z,23.48
2018-01-11T08:33:25.206Z,21.98
2018-01-11T08:35:52.728Z,20.83
2018-01-11T08:38:20.241Z,21.45
2018-01-11T08:40:47.750Z,19.10
2018-01-11T08:43:16.043Z,17.27
2018-01-11T08:45:44.302Z,18.40
2018-01-11T08:48:12.594Z,18.42
2018-01-11T08:50:40.095Z,18.30
2018-01-11T08:53:07.614Z,20.70
2018-01-11T08:55:35.178Z,19.12
2018-01-11T08:58:02.706Z,21.55
2018-01-11T09:00:30.224Z,21.45
2018-01-11T09:02:57.747Z,22.75
2018-01-11T09:05:25.313Z,24.90
2018-01-11T09:07:52.825Z,27.35
2018-01-11T09:10:20.326Z,30.10
2018-01-11T09:12:47.830Z,23.98
2018-01-11T09:15:15.359Z,19.73
2018-01-11T09:17:42.860Z,18.98
2018-01-11T09:20:10.370Z,19.08
2018-01-11T09:22:37.878Z,21.55
2018-01-11T09:25:05.399Z,19.30
2018-01-11T09:27:32.896Z,18.55
2018-01-11T09:30:00.406Z,17.70
2018-01-11T09:32:27.905Z,16.40
2018-01-11T09:34:55.433Z,15.55
2018-01-11T09:37:22.937Z,16.87
2018-01-11T09:39:50.548Z,15.47
2018-01-11T09:42:18.068Z,16.80
2018-01-11T09:44:46.380Z,16.98
2018-01-11T09:47:13.896Z,19.30
2018-01-11T09:49:41.421Z,18.13
2018-01-11T09:52:08.918Z,17.50
2018-01-11T09:54:37.215Z,17.77
2018-01-11T09:57:04.732Z,18.37
2018-01-11T09:59:32.241Z,18.03
2018-01-11T10:01:59.752Z,19.37
2018-01-11T10:04:27.283Z,24.63
2018-01-11T10:06:54.778Z,25.85
2018-01-11T10:09:23.053Z,26.27
2018-01-11T10:11:50.660Z,24.02
2018-01-11T10:14:18.188Z,21.85
2018-01-11T10:16:46.486Z,21.73
2018-01-11T10:19:14.043Z,22.20
2018-01-11T10:21:41.546Z,22.65
2018-01-11T10:24:09.072Z,21.67
2018-01-11T10:26:36.628Z,22.42
2018-01-11T10:29:04.169Z,23.60
2018-01-11T10:31:31.696Z,27.50
2018-01-11T10:33:59.209Z,22.45
2018-01-11T10:36:26.759Z,22.55
2018-01-11T10:38:54.286Z,22.08
2018-01-11T10:41:22.567Z,23.20
2018-01-11T10:43:50.869Z,20.15
2018-01-11T10:46:18.386Z,21.05
2018-01-11T10:48:45.912Z,19.93
2018-01-11T10:51:13.417Z,21.83
2018-01-11T10:53:41.719Z,35.80
2018-01-11T10:56:09.235Z,26.10
2018-01-11T10:58:36.772Z,24.02
2018-01-11T11:01:10.865Z,20.40
2018-01-11T11:03:38.396Z,22.58
2018-01-11T11:06:05.921Z,21.37
2018-01-11T11:08:33.536Z,21.50
2018-01-11T11:11:01.087Z,20.93
2018-01-11T11:13:28.604Z,22.50
2018-01-11T11:15:56.918Z,19.40
2018-01-11T11:18:24.464Z,20.80
2018-01-11T11:20:52.030Z,18.80
2018-01-11T11:23:19.581Z,20.07
2018-01-11T11:25:47.146Z,18.37
2018-01-11T11:28:14.665Z,18.75
2018-01-11T11:30:42.275Z,18.17
2018-01-11T11:33:09.800Z,21.30
2018-01-11T11:35:39.031Z,21.13
2018-01-11T11:38:06.586Z,22.13
2018-01-11T11:40:34.100Z,20.02
2018-01-11T11:43:01.618Z,20.70
2018-01-11T11:45:29.118Z,21.87
2018-01-11T11:47:56.769Z,19.77
2018-01-11T11:50:24.266Z,21.43
2018-01-11T11:52:52.540Z,20.73
2018-01-11T11:55:20.821Z,21.83
2018-01-11T11:57:48.336Z,21.87
2018-01-11T12:00:15.864Z,21.47
2018-01-11T12:02:43.368Z,20.60
2018-01-11T12:05:10.976Z,19.67
2018-01-11T12:07:38.495Z,20.00
2018-01-11T12:10:06.100Z,21.40
2018-01-11T12:12:33.608Z,20.52
2018-01-11T12:15:01.141Z,20.70
2018-01-11T12:17:28.633Z,20.70
2018-01-11T12:19:56.931Z,20.53
2018-01-11T12:22:24.435Z,20.50
2018-01-11T12:24:51.950Z,21.00
2018-01-11T12:27:19.464Z,20.20
2018-01-11T12:29:47.805Z,18.87
2018-01-11T12:32:15.347Z,20.83
2018-01-11T12:34:42.872Z,20.80
2018-01-11T12:37:10.393Z,21.57
2018-01-11T12:39:38.017Z,19.50
2018-01-11T12:42:05.534Z,24.03
2018-01-11T12:44:33.126Z,21.70
2018-01-11T12:47:01.436Z,22.83
2018-01-11T12:49:28.994Z,25.70
2018-01-11T12:51:56.608Z,24.03
2018-01-11T12:54:24.097Z,24.60
2018-01-11T12:56:51.589Z,22.73
2018-01-11T12:59:19.101Z,25.80
2018-01-11T13:01:46.602Z,25.20
2018-01-11T13:04:14.221Z,25.10
2018-01-11T13:06:41.748Z,24.80
2018-01-11T13:09:09.262Z,25.30
2018-01-11T13:11:36.766Z,24.27
2018-01-11T13:14:04.300Z,23.20
2018-01-11T13:16:31.799Z,22.53
2018-01-11T13:19:00.074Z,22.20
2018-01-11T13:21:28.343Z,23.13
2018-01-11T13:23:55.854Z,21.80
2018-01-11T13:26:23.341Z,21.60
2018-01-11T13:28:51.618Z,22.87
2018-01-11T13:31:19.126Z,21.97
2018-01-11T13:33:46.633Z,21.93
2018-01-11T13:36:14.144Z,21.23
2018-01-11T13:38:41.663Z,22.57
2018-01-11T13:41:09.172Z,23.90
2018-01-11T13:43:36.709Z,23.10
2018-01-11T13:46:04.209Z,23.00
2018-01-11T13:48:31.740Z,22.50
2018-01-11T13:50:59.248Z,22.20
2018-01-11T13:53:26.756Z,22.20
2018-01-11T13:55:54.272Z,23.10
2018-01-11T13:58:22.584Z,23.92
2018-01-11T14:00:50.077Z,23.60
2018-01-11T14:03:17.607Z,22.03
2018-01-11T14:05:45.115Z,21.63
2018-01-11T14:08:12.621Z,22.87
2018-01-11T14:10:40.118Z,21.73
2018-01-11T14:13:07.645Z,23.80
2018-01-11T14:15:35.164Z,25.05
2018-01-11T14:18:03.444Z,26.20
2018-01-11T14:20:31.716Z,36.13
2018-01-11T14:22:59.264Z,24.47
2018-01-11T14:25:26.762Z,27.57
2018-01-11T14:27:54.259Z,29.80
2018-01-11T14:30:21.792Z,37.50
2018-01-11T14:32:49.312Z,27.83
2018-01-11T14:35:17.653Z,25.73
2018-01-11T14:37:45.142Z,26.33
2018-01-11T14:40:13.426Z,29.30
2018-01-11T14:42:41.695Z,27.80
2018-01-11T14:45:09.996Z,33.78
2018-01-11T14:47:37.501Z,27.48
2018-01-11T14:50:05.035Z,31.10
2018-01-11T14:52:32.541Z,29.87
2018-01-11T14:55:00.827Z,32.20
2018-01-11T14:57:29.093Z,29.50
2018-01-11T14:59:57.404Z,33.10
2018-01-11T15:02:24.906Z,33.10
2018-01-11T15:04:52.444Z,32.70
2018-01-11T15:07:19.969Z,32.70
2018-01-11T15:09:47.486Z,34.50
2018-01-11T15:12:15.002Z,32.10
2018-01-11T15:14:42.517Z,32.13
2018-01-11T15:17:10.786Z,32.92
2018-01-11T15:19:38.414Z,33.67
2018-01-11T15:22:05.958Z,32.25
2018-01-11T15:24:33.475Z,32.70
2018-01-11T15:27:01.097Z,30.17
2018-01-11T15:29:28.613Z,29.48
2018-01-11T15:31:56.896Z,33.47
2018-01-11T15:34:24.476Z,30.12
2018-01-11T15:36:52.006Z,31.40
2018-01-11T15:39:19.547Z,30.97
2018-01-11T15:41:48.547Z,37.33
2018-01-11T15:44:16.895Z,43.00
2018-01-11T15:46:45.910Z,34.27
2018-01-11T15:49:13.440Z,34.58
2018-01-11T15:51:40.955Z,32.53
2018-01-11T15:54:09.225Z,33.03
2018-01-11T15:56:36.745Z,34.70
2018-01-11T15:59:04.279Z,34.53
2018-01-11T16:01:31.787Z,32.07
2018-01-11T16:04:00.092Z,33.78
2018-01-11T16:06:27.604Z,34.60
2018-01-11T16:08:55.137Z,33.83
2018-01-11T16:11:22.661Z,34.95
2018-01-11T16:13:50.177Z,35.97
2018-01-11T16:16:17.674Z,33.80
2018-01-11T16:18:45.190Z,39.80
2018-01-11T16:21:12.706Z,41.00
2018-01-11T16:23:40.231Z,41.10
2018-01-11T16:26:08.529Z,38.30
2018-01-11T16:28:36.033Z,38.17
2018-01-11T16:31:03.571Z,38.10
2018-01-11T16:33:31.081Z,43.80
2018-01-11T16:35:59.350Z,39.28
2018-01-11T16:38:27.646Z,37.78
2018-01-11T16:40:55.931Z,35.70
2018-01-11T16:43:23.464Z,39.80
2018-01-11T16:45:51.748Z,42.60
2018-01-11T16:48:20.026Z,40.17
2018-01-11T16:50:48.302Z,37.03
2018-01-11T16:53:16.586Z,38.15
2018-01-11T16:55:44.840Z,37.90
2018-01-11T16:58:12.385Z,41.33
2018-01-11T17:00:39.887Z,38.70
2018-01-11T17:03:07.466Z,39.15
2018-01-11T17:05:34.981Z,35.95
2018-01-11T17:08:03.277Z,39.50
2018-01-11T17:10:30.811Z,38.17
2018-01-11T17:12:58.322Z,42.58
2018-01-11T17:15:25.838Z,41.00
2018-01-11T17:17:54.124Z,39.15
2018-01-11T17:20:21.651Z,38.70
2018-01-11T17:22:49.167Z,39.20
2018-01-11T17:25:16.690Z,49.90
2018-01-11T17:27:44.960Z,40.28
2018-01-11T17:30:13.251Z,42.45
2018-01-11T17:32:41.556Z,40.45
2018-01-11T17:35:09.050Z,37.38
2018-01-11T17:37:36.549Z,34.85
2018-01-11T17:40:04.069Z,39.40
2018-01-11T17:42:31.674Z,36.05
2018-01-11T17:44:59.194Z,42.90
2018-01-11T17:47:26.715Z,46.92
2018-01-11T17:49:54.226Z,66.27
2018-01-11T17:52:22.500Z,36.70
2018-01-11T17:54:50.795Z,35.90
2018-01-11T17:57:18.312Z,33.63
2018-01-11T17:59:45.826Z,33.30
2018-01-11T18:02:13.338Z,36.07
2018-01-11T18:04:40.853Z,35.35
2018-01-11T18:07:08.372Z,34.45
2018-01-11T18:09:36.680Z,38.65
2018-01-11T18:12:04.197Z,39.72
2018-01-11T18:14:32.492Z,37.93
2018-01-11T18:17:00.754Z,37.43
2018-01-11T18:19:28.289Z,34.80
2018-01-11T18:21:55.794Z,33.75
2018-01-11T18:24:23.313Z,32.10
2018-01-11T18:26:50.845Z,32.20
2018-01-11T18:29:18.380Z,28.73
2018-01-11T18:31:45.886Z,32.97
2018-01-11T18:34:13.404Z,30.70
2018-01-11T18:36:40.908Z,28.80
2018-01-11T18:39:08.413Z,29.10
2018-01-11T18:41:35.923Z,30.62
2018-01-11T18:44:03.447Z,30.90
2018-01-11T18:46:30.956Z,30.23
2018-01-11T18:48:58.475Z,27.67
2018-01-11T18:51:25.986Z,29.87
2018-01-11T18:53:53.502Z,30.80
2018-01-11T18:56:21.010Z,29.47
2018-01-11T18:58:48.544Z,27.08
2018-01-11T19:01:16.832Z,25.95
2018-01-11T19:03:45.131Z,27.25
2018-01-11T19:06:12.630Z,27.15
2018-01-11T19:08:40.206Z,24.87
2018-01-11T19:11:07.691Z,24.02
2018-01-11T19:13:35.221Z,24.65
2018-01-11T19:16:02.734Z,27.90
2018-01-11T19:18:30.261Z,27.70
2018-01-11T19:20:57.766Z,28.90
2018-01-11T19:23:25.286Z,30.30
2018-01-11T19:25:52.794Z,29.02
2018-01-11T19:28:20.359Z,29.65
2018-01-11T19:30:47.855Z,27.33
2018-01-11T19:33:15.392Z,26.70
2018-01-11T19:35:43.658Z,33.25
2018-01-11T19:38:11.166Z,32.50
2018-01-11T19:40:38.675Z,30.60
2018-01-11T19:43:06.293Z,33.35
2018-01-11T19:45:33.807Z,31.50
2018-01-11T19:48:02.070Z,32.33
2018-01-11T19:50:29.577Z,34.57
2018-01-11T19:52:57.087Z,32.65
2018-01-11T19:55:26.124Z,32.95
2018-01-11T19:57:53.625Z,32.25
2018-01-11T20:00:21.160Z,31.60
2018-01-11T20:02:48.676Z,31.25
2018-01-11T20:05:16.958Z,32.97
2018-01-11T20:07:45.235Z,35.17
2018-01-11T20:10:13.515Z,35.45
2018-01-11T20:12:41.032Z,35.08
2018-01-11T20:15:08.551Z,36.58
2018-01-11T20:17:36.070Z,34.45
2018-01-11T20:20:04.350Z,32.65
2018-01-11T20:22:32.629Z,32.50
2018-01-11T20:25:00.923Z,30.08
2018-01-11T20:27:28.423Z,31.80
2018-01-11T20:29:55.939Z,29.80
2018-01-11T20:32:23.460Z,31.85
2018-01-11T20:34:51.037Z,29.40
2018-01-11T20:37:18.569Z,30.37
2018-01-11T20:39:46.042Z,33.38
2018-01-11T20:42:13.547Z,29.00
2018-01-11T20:44:41.080Z,30.92
2018-01-11T20:47:09.360Z,29.75
2018-01-11T20:49:36.915Z,28.62
2018-01-11T20:52:05.196Z,29.45
2018-01-11T20:54:32.726Z,27.27
2018-01-11T20:57:00.240Z,26.80
2018-01-11T20:59:27.751Z,25.15
2018-01-11T21:01:56.031Z,24.80
2018-01-11T21:04:24.324Z,27.05
2018-01-11T21:06:51.817Z,25.58
2018-01-11T21:09:19.330Z,26.43
2018-01-11T21:11:47.606Z,24.40
2018-01-11T21:14:15.908Z,27.10
2018-01-11T21:16:43.424Z,26.62
2018-01-11T21:19:11.718Z,26.80
2018-01-11T21:21:40.005Z,24.53
2018-01-11T21:24:07.518Z,27.40
2018-01-11T21:26:35.046Z,26.10
2018-01-11T21:29:02.569Z,24.80
2018-01-11T21:31:30.093Z,25.88
2018-01-11T21:33:57.609Z,24.87
2018-01-11T21:36:25.128Z,26.40
2018-01-11T21:38:53.429Z,24.17
2018-01-11T21:41:21.013Z,27.77
2018-01-11T21:43:48.548Z,27.58
2018-01-11T21:46:16.053Z,25.10
2018-01-11T21:48:43.584Z,30.12
2018-01-11T21:51:11.090Z,27.45
2018-01-11T21:53:38.621Z,28.17
2018-01-11T21:56:06.122Z,25.67
2018-01-11T21:58:34.393Z,29.45
2018-01-11T22:01:02.669Z,31.00
2018-01-11T22:03:30.181Z,31.20
2018-01-11T22:05:57.681Z,23.45
2018-01-11T22:08:25.189Z,24.23
2018-01-11T22:10:52.706Z,25.48
2018-01-11T22:13:20.986Z,25.48
2018-01-11T22:15:49.263Z,25.62
2018-01-11T22:18:17.551Z,26.05
2018-01-11T22:20:45.077Z,25.30
2018-01-11T22:23:12.606Z,25.27
2018-01-11T22:25:40.105Z,21.52
2018-01-11T22:28:08.385Z,23.62
2018-01-11T22:30:36.668Z,24.00
2018-01-11T22:33:04.952Z,22.70
2018-01-11T22:35:32.476Z,22.98
2018-01-11T22:37:59.977Z,21.75
2018-01-11T22:40:27.498Z,21.42
2018-01-11T22:42:55.001Z,21.23
2018-01-11T22:45:22.518Z,23.83
2018-01-11T22:47:50.028Z,23.87
2018-01-11T22:50:17.544Z,24.90
2018-01-11T22:52:45.824Z,25.62
2018-01-11T22:55:14.116Z,25.35
2018-01-11T22:57:41.614Z,24.52
2018-01-11T23:00:09.135Z,23.02
2018-01-11T23:02:36.634Z,20.50
2018-01-11T23:05:04.151Z,25.62
2018-01-11T23:07:31.664Z,21.98
2018-01-11T23:09:59.169Z,19.85
2018-01-11T23:12:26.696Z,23.83
2018-01-11T23:14:54.210Z,26.00
2018-01-11T23:17:21.716Z,25.00
2018-01-11T23:19:49.244Z,29.83
2018-01-11T23:22:16.729Z,33.13
2018-01-11T23:24:44.244Z,35.70
2018-01-11T23:27:11.753Z,39.40
2018-01-11T23:29:39.276Z,40.47
2018-01-11T23:32:06.770Z,40.10
2018-01-11T23:34:34.292Z,44.85
2018-01-11T23:37:01.796Z,37.28
2018-01-11T23:39:30.070Z,38.30
2018-01-11T23:41:58.344Z,44.15
2018-01-11T23:44:26.631Z,39.95
2018-01-11T23:46:54.140Z,40.60
2018-01-11T23:49:21.670Z,39.10
2018-01-11T23:51:49.162Z,38.70
2018-01-11T23:54:16.677Z,38.45
2018-01-11T23:56:44.169Z,33.15
2018-01-11T23:59:11.701Z,32.95
